createdAt,value
2019-06-01T00:01:36.537Z,101113.00
2019-06-01T00:04:07.990Z,101113.00
2019-06-01T00:06:39.232Z,101108.00
2019-06-01T00:09:10.407Z,101106.00
2019-06-01T00:11:43.277Z,101107.00
2019-06-01T00:14:14.525Z,101104.00
2019-06-01T00:16:46.012Z,101107.00
2019-06-01T00:19:17.343Z,101112.00
2019-06-01T00:21:49.445Z,101105.00
2019-06-01T00:24:20.778Z,101103.00
2019-06-01T00:26:52.170Z,101110.00
2019-06-01T00:29:23.432Z,101112.00
2019-06-01T00:31:54.685Z,101104.00
2019-06-01T00:34:25.921Z,101107.00
2019-06-01T00:36:57.170Z,101107.00
2019-06-01T00:39:28.420Z,101122.00
2019-06-01T00:41:59.673Z,101113.00
2019-06-01T00:44:30.903Z,101119.00
2019-06-01T00:47:02.106Z,101116.00
2019-06-01T00:49:33.269Z,101110.00
2019-06-01T00:52:05.515Z,101117.00
2019-06-01T00:54:36.684Z,101110.00
2019-06-01T00:57:08.930Z,101113.00
2019-06-01T00:59:40.086Z,101115.00
2019-06-01T01:02:11.442Z,101122.00
2019-06-01T01:04:42.563Z,101103.00
2019-06-01T01:07:13.742Z,101113.00
2019-06-01T01:09:44.919Z,101102.00
2019-06-01T01:12:16.086Z,101101.00
2019-06-01T01:14:47.273Z,101103.00
2019-06-01T01:17:18.419Z,101104.00
2019-06-01T01:19:49.733Z,101109.00
2019-06-01T01:22:20.830Z,101105.00
2019-06-01T01:24:52.408Z,101103.00
2019-06-01T01:27:23.624Z,101103.00
2019-06-01T01:29:55.039Z,101095.00
2019-06-01T01:32:26.307Z,101095.00
2019-06-01T01:34:57.851Z,101088.00
2019-06-01T01:37:29.015Z,101092.00
2019-06-01T01:40:00.179Z,101102.00
2019-06-01T01:42:31.354Z,101089.00
2019-06-01T01:45:02.513Z,101101.00
2019-06-01T01:47:33.779Z,101093.00
2019-06-01T01:50:05.044Z,101090.00
2019-06-01T01:52:36.246Z,101090.00
2019-06-01T01:55:07.834Z,101088.00
2019-06-01T01:57:38.983Z,101085.00
2019-06-01T02:00:10.198Z,101085.00
2019-06-01T02:02:41.422Z,101085.00
2019-06-01T02:05:12.620Z,101085.00
2019-06-01T02:07:43.806Z,101080.00
2019-06-01T02:10:14.999Z,101081.00
2019-06-01T02:12:46.177Z,101084.00
2019-06-01T02:15:17.432Z,101091.00
2019-06-01T02:17:48.641Z,101083.00
2019-06-01T02:20:19.877Z,101087.00
2019-06-01T02:22:51.045Z,101089.00
2019-06-01T02:25:22.259Z,101095.00
2019-06-01T02:27:53.480Z,101089.00
2019-06-01T02:30:24.689Z,101089.00
2019-06-01T02:32:56.429Z,101092.00
2019-06-01T02:35:28.791Z,101083.00
2019-06-01T02:38:00.425Z,101091.00
2019-06-01T02:40:31.672Z,101092.00
2019-06-01T02:43:04.328Z,101082.00
2019-06-01T02:45:35.731Z,101089.00
2019-06-01T02:48:07.594Z,101088.00
2019-06-01T02:50:38.785Z,101084.00
2019-06-01T02:53:09.966Z,101085.00
2019-06-01T02:55:41.154Z,101092.00
2019-06-01T02:58:12.414Z,101091.00
2019-06-01T03:01:33.072Z,101092.00
2019-06-01T03:04:08.305Z,101088.00
2019-06-01T03:06:42.833Z,101088.00
2019-06-01T03:09:14.007Z,101082.00
2019-06-01T03:11:45.189Z,101082.00
2019-06-01T03:14:16.368Z,101088.00
2019-06-01T03:16:47.539Z,101082.00
2019-06-01T03:19:18.733Z,101083.00
2019-06-01T03:21:51.134Z,101081.00
2019-06-01T03:24:26.136Z,101080.00
2019-06-01T03:26:57.302Z,101081.00
2019-06-01T03:29:31.365Z,101078.00
2019-06-01T03:32:23.855Z,101073.00
2019-06-01T03:34:35.384Z,101077.00
2019-06-01T03:37:07.115Z,101076.00
2019-06-01T03:39:38.392Z,101077.00
2019-06-01T03:42:09.636Z,101073.00
2019-06-01T03:44:40.822Z,101079.00
2019-06-01T03:47:12.075Z,101072.00
2019-06-01T03:49:43.299Z,101072.00
2019-06-01T03:52:14.472Z,101072.00
2019-06-01T03:54:48.578Z,101082.00
2019-06-01T03:57:18.551Z,101073.00
2019-06-01T03:59:50.127Z,101082.00
2019-06-01T04:02:32.663Z,101070.00
2019-06-01T04:04:54.171Z,101075.00
2019-06-01T04:07:25.367Z,101075.00
2019-06-01T04:09:56.552Z,101076.00
2019-06-01T04:12:27.709Z,101082.00
2019-06-01T04:14:58.894Z,101085.00
2019-06-01T04:17:32.832Z,101088.00
2019-06-01T04:20:03.923Z,101089.00
2019-06-01T04:22:35.183Z,101096.00
2019-06-01T04:25:08.192Z,101085.00
2019-06-01T04:27:39.509Z,101092.00
2019-06-01T04:30:11.477Z,101090.00
2019-06-01T04:32:49.784Z,101091.00
2019-06-01T04:35:15.701Z,101095.00
2019-06-01T04:37:48.629Z,101095.00
2019-06-01T04:40:19.893Z,101101.00
2019-06-01T04:42:51.043Z,101094.00
2019-06-01T04:45:22.212Z,101101.00
2019-06-01T04:47:53.416Z,101088.00
2019-06-01T04:50:24.591Z,101089.00
2019-06-01T04:52:55.753Z,101087.00
2019-06-01T04:55:26.947Z,101089.00
2019-06-01T04:57:58.130Z,101095.00
2019-06-01T05:00:29.308Z,101093.00
2019-06-01T05:03:05.299Z,101099.00
2019-06-01T05:05:33.417Z,101101.00
2019-06-01T05:08:05.216Z,101106.00
2019-06-01T05:10:36.447Z,101111.00
2019-06-01T05:13:07.650Z,101110.00
2019-06-01T05:15:38.832Z,101112.00
2019-06-01T05:18:10.115Z,101109.00
2019-06-01T05:20:42.185Z,101118.00
2019-06-01T05:23:13.293Z,101110.00
2019-06-01T05:25:44.476Z,101110.00
2019-06-01T05:28:15.633Z,101112.00
2019-06-01T05:30:47.889Z,101115.00
2019-06-01T05:33:35.321Z,101113.00
2019-06-01T05:35:51.942Z,101114.00
2019-06-01T05:38:23.100Z,101115.00
2019-06-01T05:40:54.277Z,101114.00
2019-06-01T05:43:25.682Z,101107.00
2019-06-01T05:45:56.879Z,101123.00
2019-06-01T05:48:30.609Z,101124.00
2019-06-01T05:51:01.073Z,101119.00
2019-06-01T05:53:32.200Z,101133.00
2019-06-01T05:56:03.468Z,101128.00
2019-06-01T05:58:34.616Z,101134.00
2019-06-01T06:01:05.832Z,101143.00
2019-06-01T06:03:40.456Z,101137.00
2019-06-01T06:06:09.883Z,101146.00
2019-06-01T06:08:41.047Z,101158.00
2019-06-01T06:11:12.905Z,101161.00
2019-06-01T06:13:44.089Z,101154.00
2019-06-01T06:16:15.755Z,101164.00
2019-06-01T06:18:46.911Z,101164.00
2019-06-01T06:21:18.594Z,101161.00
2019-06-01T06:23:49.848Z,101160.00
2019-06-01T06:26:22.713Z,101159.00
2019-06-01T06:28:54.024Z,101155.00
2019-06-01T06:31:25.207Z,101159.00
2019-06-01T06:33:57.246Z,101161.00
2019-06-01T06:36:28.514Z,101159.00
2019-06-01T06:38:59.675Z,101159.00
2019-06-01T06:41:30.857Z,101164.00
2019-06-01T06:44:02.015Z,101167.00
2019-06-01T06:46:33.180Z,101166.00
2019-06-01T06:49:04.395Z,101164.00
2019-06-01T06:51:35.537Z,101162.00
2019-06-01T06:54:06.689Z,101162.00
2019-06-01T06:56:37.909Z,101152.00
2019-06-01T06:59:11.800Z,101156.00
2019-06-01T07:01:43.103Z,101157.00
2019-06-01T07:04:14.288Z,101152.00
2019-06-01T07:06:45.500Z,101160.00
2019-06-01T07:09:17.869Z,101158.00
2019-06-01T07:11:49.337Z,101154.00
2019-06-01T07:14:21.258Z,101154.00
2019-06-01T07:16:52.534Z,101164.00
2019-06-01T07:19:23.859Z,101162.00
2019-06-01T07:21:55.000Z,101164.00
2019-06-01T07:24:26.166Z,101159.00
2019-06-01T07:26:57.333Z,101159.00
2019-06-01T07:29:28.528Z,101164.00
2019-06-01T07:31:59.661Z,101155.00
2019-06-01T07:34:40.227Z,101155.00
2019-06-01T07:37:04.799Z,101163.00
2019-06-01T07:39:35.974Z,101160.00
2019-06-01T07:42:07.289Z,101160.00
2019-06-01T07:44:38.429Z,101157.00
2019-06-01T07:47:09.642Z,101161.00
2019-06-01T07:49:40.800Z,101164.00
2019-06-01T07:52:13.437Z,101171.00
2019-06-01T07:54:44.991Z,101160.00
2019-06-01T07:57:16.199Z,101153.00
2019-06-01T07:59:47.425Z,101154.00
2019-06-01T08:02:18.618Z,101147.00
2019-06-01T08:04:54.066Z,101157.00
2019-06-01T08:07:23.360Z,101154.00
2019-06-01T08:09:55.596Z,101158.00
2019-06-01T08:12:27.513Z,101161.00
2019-06-01T08:14:58.713Z,101156.00
2019-06-01T08:17:30.151Z,101153.00
2019-06-01T08:20:01.380Z,101152.00
2019-06-01T08:22:32.611Z,101150.00
2019-06-01T08:25:03.848Z,101149.00
2019-06-01T08:27:35.033Z,101140.00
2019-06-01T08:30:06.962Z,101131.00
2019-06-01T08:32:38.223Z,101142.00
2019-06-01T08:35:09.788Z,101145.00
2019-06-01T08:37:41.324Z,101143.00
2019-06-01T08:40:13.154Z,101133.00
2019-06-01T08:42:44.412Z,101134.00
2019-06-01T08:45:16.573Z,101127.00
2019-06-01T08:47:49.004Z,101128.00
2019-06-01T08:50:20.330Z,101132.00
2019-06-01T08:52:51.576Z,101126.00
2019-06-01T08:55:24.084Z,101133.00
2019-06-01T08:57:55.701Z,101128.00
2019-06-01T09:00:26.946Z,101132.00
2019-06-01T09:02:58.635Z,101129.00
2019-06-01T09:05:30.461Z,101131.00
2019-06-01T09:08:02.652Z,101135.00
2019-06-01T09:10:35.428Z,101130.00
2019-06-01T09:13:06.799Z,101129.00
2019-06-01T09:15:38.005Z,101122.00
2019-06-01T09:18:09.165Z,101127.00
2019-06-01T09:20:40.333Z,101123.00
2019-06-01T09:23:11.581Z,101119.00
2019-06-01T09:25:42.758Z,101121.00
2019-06-01T09:28:13.974Z,101109.00
2019-06-01T09:30:45.963Z,101111.00
2019-06-01T09:33:17.193Z,101119.00
2019-06-01T09:35:56.045Z,101110.00
2019-06-01T09:38:21.527Z,101117.00
2019-06-01T09:40:53.786Z,101108.00
2019-06-01T09:43:26.467Z,101117.00
2019-06-01T09:45:57.775Z,101114.00
2019-06-01T09:48:29.405Z,101104.00
2019-06-01T09:51:00.641Z,101106.00
2019-06-01T09:53:32.536Z,101100.00
2019-06-01T09:56:04.831Z,101108.00
2019-06-01T09:58:36.902Z,101099.00
2019-06-01T10:01:08.197Z,101103.00
2019-06-01T10:03:39.482Z,101080.00
2019-06-01T10:06:14.025Z,101080.00
2019-06-01T10:08:43.708Z,101089.00
2019-06-01T10:11:14.887Z,101088.00
2019-06-01T10:13:46.117Z,101079.00
2019-06-01T10:16:17.567Z,101079.00
2019-06-01T10:18:48.813Z,101076.00
2019-06-01T10:21:19.985Z,101078.00
2019-06-01T10:23:51.148Z,101069.00
2019-06-01T10:26:22.364Z,101071.00
2019-06-01T10:28:53.555Z,101070.00
2019-06-01T10:31:24.727Z,101061.00
2019-06-01T10:33:55.895Z,101062.00
2019-06-01T10:36:27.088Z,101059.00
2019-06-01T10:38:58.305Z,101065.00
2019-06-01T10:41:29.506Z,101066.00
2019-06-01T10:44:00.725Z,101062.00
2019-06-01T10:46:31.969Z,101055.00
2019-06-01T10:49:03.123Z,101051.00
2019-06-01T10:51:34.317Z,101055.00
2019-06-01T10:54:05.504Z,101057.00
2019-06-01T10:56:36.689Z,101047.00
2019-06-01T10:59:07.853Z,101056.00
2019-06-01T11:01:39.103Z,101056.00
2019-06-01T11:04:10.293Z,101050.00
2019-06-01T11:06:46.479Z,101042.00
2019-06-01T11:09:14.460Z,101040.00
2019-06-01T11:11:45.651Z,101041.00
2019-06-01T11:14:16.811Z,101028.00
2019-06-01T11:16:52.705Z,101037.00
2019-06-01T11:19:20.872Z,101027.00
2019-06-01T11:21:52.100Z,101027.00
2019-06-01T11:24:23.301Z,101020.00
2019-06-01T11:26:54.503Z,101020.00
2019-06-01T11:29:25.666Z,101022.00
2019-06-01T11:31:56.868Z,101017.00
2019-06-01T11:34:28.140Z,101014.00
2019-06-01T11:37:05.309Z,101019.00
2019-06-01T11:39:34.270Z,101009.00
2019-06-01T11:42:05.700Z,101009.00
2019-06-01T11:44:36.923Z,100991.00
2019-06-01T11:47:08.124Z,100991.00
2019-06-01T11:49:39.301Z,100995.00
2019-06-01T11:52:10.498Z,100992.00
2019-06-01T11:54:41.655Z,100986.00
2019-06-01T11:57:12.927Z,100986.00
2019-06-01T11:59:45.702Z,100981.00
2019-06-01T12:02:16.991Z,100976.00
2019-06-01T12:04:48.154Z,100981.00
2019-06-01T12:07:19.340Z,100969.00
2019-06-01T12:09:50.524Z,100974.00
2019-06-01T12:12:21.710Z,100970.00
2019-06-01T12:14:52.870Z,100957.00
2019-06-01T12:17:24.025Z,100961.00
2019-06-01T12:19:55.197Z,100959.00
2019-06-01T12:22:26.360Z,100960.00
2019-06-01T12:24:57.641Z,100952.00
2019-06-01T12:27:28.808Z,100957.00
2019-06-01T12:29:59.996Z,100959.00
2019-06-01T12:32:31.153Z,100946.00
2019-06-01T12:35:03.460Z,100944.00
2019-06-01T12:37:54.938Z,100943.00
2019-06-01T12:40:08.110Z,100945.00
2019-06-01T12:42:39.786Z,100944.00
2019-06-01T12:45:21.676Z,100935.00
2019-06-01T12:47:57.532Z,100927.00
2019-06-01T12:50:23.549Z,100927.00
2019-06-01T12:52:54.740Z,100924.00
2019-06-01T12:55:25.945Z,100925.00
2019-06-01T12:57:57.112Z,100922.00
2019-06-01T13:00:28.635Z,100923.00
2019-06-01T13:03:07.118Z,100924.00
2019-06-01T13:05:32.870Z,100914.00
2019-06-01T13:08:04.084Z,100910.00
2019-06-01T13:10:35.278Z,100910.00
2019-06-01T13:13:06.428Z,100910.00
2019-06-01T13:15:37.623Z,100906.00
2019-06-01T13:18:08.788Z,100914.00
2019-06-01T13:20:41.358Z,100903.00
2019-06-01T13:23:13.785Z,100894.00
2019-06-01T13:25:45.629Z,100885.00
2019-06-01T13:28:16.846Z,100894.00
2019-06-01T13:30:49.684Z,100879.00
2019-06-01T13:33:20.969Z,100878.00
2019-06-01T13:35:52.625Z,100882.00
2019-06-01T13:38:24.937Z,100879.00
2019-06-01T13:40:56.224Z,100872.00
2019-06-01T13:43:27.393Z,100865.00
2019-06-01T13:45:58.570Z,100865.00
2019-06-01T13:48:29.741Z,100863.00
2019-06-01T13:51:00.914Z,100863.00
2019-06-01T13:53:32.053Z,100854.00
2019-06-01T13:56:03.248Z,100860.00
2019-06-01T13:58:34.396Z,100859.00
2019-06-01T14:01:06.707Z,100847.00
2019-06-01T14:03:37.884Z,100856.00
2019-06-01T14:06:09.078Z,100847.00
2019-06-01T14:08:40.299Z,100835.00
2019-06-01T14:11:11.645Z,100834.00
2019-06-01T14:13:42.867Z,100834.00
2019-06-01T14:16:14.062Z,100833.00
2019-06-01T14:18:45.660Z,100830.00
2019-06-01T14:21:16.822Z,100817.00
2019-06-01T14:23:48.015Z,100832.00
2019-06-01T14:26:19.292Z,100820.00
2019-06-01T14:28:50.472Z,100825.00
2019-06-01T14:31:23.033Z,100826.00
2019-06-01T14:33:54.869Z,100816.00
2019-06-01T14:36:26.198Z,100813.00
2019-06-01T14:38:58.858Z,100818.00
2019-06-01T14:41:30.152Z,100812.00
2019-06-01T14:44:01.339Z,100818.00
2019-06-01T14:46:32.569Z,100805.00
2019-06-01T14:49:03.733Z,100815.00
2019-06-01T14:51:34.985Z,100812.00
2019-06-01T14:54:06.271Z,100806.00
2019-06-01T14:56:37.455Z,100802.00
2019-06-01T14:59:08.607Z,100810.00
2019-06-01T15:01:39.924Z,100798.00
2019-06-01T15:04:11.077Z,100794.00
2019-06-01T15:06:42.263Z,100791.00
2019-06-01T15:09:19.088Z,100799.00
2019-06-01T15:11:48.731Z,100790.00
2019-06-01T15:14:19.953Z,100786.00
2019-06-01T15:16:51.685Z,100780.00
2019-06-01T15:19:23.083Z,100785.00
2019-06-01T15:21:54.279Z,100778.00
2019-06-01T15:24:25.489Z,100779.00
2019-06-01T15:26:56.902Z,100781.00
2019-06-01T15:29:28.108Z,100777.00
2019-06-01T15:32:00.145Z,100767.00
2019-06-01T15:34:31.465Z,100772.00
2019-06-01T15:37:02.646Z,100765.00
2019-06-01T15:39:33.821Z,100759.00
2019-06-01T15:42:04.993Z,100757.00
2019-06-01T15:44:36.157Z,100761.00
2019-06-01T15:47:07.813Z,100758.00
2019-06-01T15:49:39.029Z,100751.00
2019-06-01T15:52:10.309Z,100752.00
2019-06-01T15:54:41.462Z,100749.00
2019-06-01T15:57:12.722Z,100746.00
2019-06-01T15:59:43.980Z,100745.00
2019-06-01T16:02:15.182Z,100741.00
2019-06-01T16:04:46.395Z,100745.00
2019-06-01T16:07:19.139Z,100740.00
2019-06-01T16:09:51.388Z,100751.00
2019-06-01T16:12:22.813Z,100740.00
2019-06-01T16:14:54.024Z,100737.00
2019-06-01T16:17:25.294Z,100733.00
2019-06-01T16:19:57.836Z,100740.00
2019-06-01T16:22:29.124Z,100742.00
2019-06-01T16:25:00.381Z,100731.00
2019-06-01T16:27:32.717Z,100728.00
2019-06-01T16:30:05.616Z,100735.00
2019-06-01T16:32:39.589Z,100728.00
2019-06-01T16:35:10.785Z,100728.00
2019-06-01T16:37:42.088Z,100728.00
2019-06-01T16:40:13.246Z,100733.00
2019-06-01T16:42:44.418Z,100729.00
2019-06-01T16:45:15.712Z,100732.00
2019-06-01T16:47:47.036Z,100728.00
2019-06-01T16:50:18.269Z,100725.00
2019-06-01T16:52:49.451Z,100734.00
2019-06-01T16:55:20.704Z,100721.00
2019-06-01T16:57:51.980Z,100719.00
2019-06-01T17:00:23.113Z,100722.00
2019-06-01T17:02:54.543Z,100723.00
2019-06-01T17:05:25.884Z,100711.00
2019-06-01T17:07:57.095Z,100719.00
2019-06-01T17:10:28.258Z,100714.00
2019-06-01T17:13:00.181Z,100714.00
2019-06-01T17:15:32.319Z,100719.00
2019-06-01T17:18:07.023Z,100708.00
2019-06-01T17:20:47.988Z,100712.00
2019-06-01T17:23:26.747Z,100711.00
2019-06-01T17:25:52.904Z,100711.00
2019-06-01T17:28:25.308Z,100712.00
2019-06-01T17:30:56.468Z,100713.00
2019-06-01T17:33:27.665Z,100710.00
2019-06-01T17:35:58.885Z,100713.00
2019-06-01T17:38:30.084Z,100707.00
2019-06-01T17:41:02.199Z,100709.00
2019-06-01T17:43:33.463Z,100708.00
2019-06-01T17:46:05.298Z,100710.00
2019-06-01T17:48:36.705Z,100701.00
2019-06-01T17:51:08.604Z,100699.00
2019-06-01T17:53:39.806Z,100703.00
2019-06-01T17:56:12.158Z,100708.00
2019-06-01T17:58:43.439Z,100711.00
2019-06-01T18:01:14.643Z,100699.00
2019-06-01T18:03:45.819Z,100703.00
2019-06-01T18:06:17.047Z,100696.00
2019-06-01T18:08:48.287Z,100684.00
2019-06-01T18:11:19.611Z,100697.00
2019-06-01T18:13:50.865Z,100701.00
2019-06-01T18:16:22.037Z,100690.00
2019-06-01T18:18:54.281Z,100691.00
2019-06-01T18:21:25.482Z,100692.00
2019-06-01T18:23:56.710Z,100687.00
2019-06-01T18:26:27.921Z,100684.00
2019-06-01T18:28:59.162Z,100689.00
2019-06-01T18:31:30.434Z,100688.00
2019-06-01T18:34:02.998Z,100690.00
2019-06-01T18:36:34.442Z,100682.00
2019-06-01T18:39:07.654Z,100690.00
2019-06-01T18:41:38.847Z,100682.00
2019-06-01T18:44:10.024Z,100692.00
2019-06-01T18:46:41.192Z,100686.00
2019-06-01T18:49:12.406Z,100680.00
2019-06-01T18:51:43.632Z,100684.00
2019-06-01T18:54:15.159Z,100688.00
2019-06-01T18:56:46.439Z,100683.00
2019-06-01T18:59:17.665Z,100684.00
2019-06-01T19:01:48.837Z,100685.00
2019-06-01T19:04:20.027Z,100680.00
2019-06-01T19:06:51.302Z,100678.00
2019-06-01T19:09:22.466Z,100669.00
2019-06-01T19:11:53.720Z,100677.00
2019-06-01T19:14:24.876Z,100687.00
2019-06-01T19:16:56.054Z,100688.00
2019-06-01T19:19:31.075Z,100686.00
2019-06-01T19:22:02.462Z,100688.00
2019-06-01T19:24:33.704Z,100690.00
2019-06-01T19:27:04.893Z,100688.00
2019-06-01T19:29:36.349Z,100688.00
2019-06-01T19:32:08.701Z,100688.00
2019-06-01T19:34:39.971Z,100697.00
2019-06-01T19:37:11.231Z,100699.00
2019-06-01T19:39:42.482Z,100702.00
2019-06-01T19:42:13.697Z,100700.00
2019-06-01T19:44:44.935Z,100711.00
2019-06-01T19:47:16.164Z,100707.00
2019-06-01T19:49:47.316Z,100698.00
2019-06-01T19:52:19.019Z,100704.00
2019-06-01T19:54:50.224Z,100706.00
2019-06-01T19:57:23.512Z,100709.00
2019-06-01T19:59:54.253Z,100707.00
2019-06-01T20:02:33.693Z,100709.00
2019-06-01T20:05:02.500Z,100704.00
2019-06-01T20:07:34.995Z,100703.00
2019-06-01T20:10:06.687Z,100704.00
2019-06-01T20:12:38.053Z,100706.00
2019-06-01T20:15:11.198Z,100702.00
2019-06-01T20:17:42.545Z,100705.00
2019-06-01T20:20:14.770Z,100705.00
2019-06-01T20:22:46.185Z,100703.00
2019-06-01T20:25:17.619Z,100699.00
2019-06-01T20:27:48.923Z,100701.00
2019-06-01T20:30:22.191Z,100707.00
2019-06-01T20:32:53.992Z,100706.00
2019-06-01T20:35:25.161Z,100706.00
2019-06-01T20:37:56.425Z,100709.00
2019-06-01T20:40:27.699Z,100706.00
2019-06-01T20:42:58.993Z,100705.00
2019-06-01T20:45:30.331Z,100703.00
2019-06-01T20:48:01.682Z,100702.00
2019-06-01T20:50:32.834Z,100703.00
2019-06-01T20:53:04.191Z,100706.00
2019-06-01T20:55:35.348Z,100699.00
2019-06-01T20:58:06.614Z,100706.00
2019-06-01T21:00:37.865Z,100701.00
2019-06-01T21:03:09.233Z,100702.00
2019-06-01T21:05:40.534Z,100702.00
2019-06-01T21:08:14.030Z,100703.00
2019-06-01T21:10:45.407Z,100707.00
2019-06-01T21:13:18.081Z,100699.00
2019-06-01T21:15:49.442Z,100720.00
2019-06-01T21:18:21.097Z,100708.00
2019-06-01T21:20:56.305Z,100710.00
2019-06-01T21:23:28.068Z,100704.00
2019-06-01T21:25:59.292Z,100709.00
2019-06-01T21:28:30.708Z,100710.00
2019-06-01T21:31:01.929Z,100712.00
2019-06-01T21:33:33.204Z,100715.00
2019-06-01T21:36:04.429Z,100707.00
2019-06-01T21:38:38.259Z,100713.00
2019-06-01T21:41:08.769Z,100704.00
2019-06-01T21:43:39.987Z,100704.00
2019-06-01T21:46:11.216Z,100693.00
2019-06-01T21:48:42.382Z,100697.00
2019-06-01T21:51:13.571Z,100692.00
2019-06-01T21:53:46.026Z,100686.00
2019-06-01T21:56:19.924Z,100689.00
2019-06-01T21:58:50.061Z,100694.00
2019-06-01T22:01:22.606Z,100710.00
2019-06-01T22:03:55.091Z,100699.00
2019-06-01T22:06:27.682Z,100697.00
2019-06-01T22:08:59.008Z,100708.00
2019-06-01T22:11:30.242Z,100702.00
2019-06-01T22:14:01.540Z,100696.00
2019-06-01T22:16:33.934Z,100698.00
2019-06-01T22:19:05.583Z,100686.00
2019-06-01T22:21:36.784Z,100689.00
2019-06-01T22:24:07.953Z,100691.00
2019-06-01T22:26:39.144Z,100690.00
2019-06-01T22:29:10.321Z,100683.00
2019-06-01T22:31:41.520Z,100685.00
2019-06-01T22:34:12.780Z,100677.00
2019-06-01T22:36:43.966Z,100687.00
2019-06-01T22:39:19.378Z,100685.00
2019-06-01T22:41:51.818Z,100686.00
2019-06-01T22:44:24.066Z,100675.00
2019-06-01T22:46:55.270Z,100680.00
2019-06-01T22:49:26.859Z,100676.00
2019-06-01T22:51:58.196Z,100677.00
2019-06-01T22:54:29.472Z,100677.00
2019-06-01T22:57:00.692Z,100675.00
2019-06-01T22:59:32.860Z,100681.00
2019-06-01T23:02:04.472Z,100677.00
2019-06-01T23:04:35.644Z,100676.00
2019-06-01T23:07:06.810Z,100669.00
2019-06-01T23:09:37.988Z,100664.00
2019-06-01T23:12:09.176Z,100669.00
2019-06-01T23:14:40.365Z,100667.00
2019-06-01T23:17:11.515Z,100660.00
2019-06-01T23:19:42.714Z,100669.00
2019-06-01T23:22:13.865Z,100664.00
2019-06-01T23:24:45.044Z,100668.00
2019-06-01T23:27:16.210Z,100671.00
2019-06-01T23:29:47.436Z,100669.00
2019-06-01T23:32:18.652Z,100670.00
2019-06-01T23:34:49.857Z,100661.00
2019-06-01T23:37:22.577Z,100664.00
2019-06-01T23:39:54.005Z,100658.00
2019-06-01T23:42:25.197Z,100665.00
2019-06-01T23:44:56.423Z,100660.00
2019-06-01T23:47:27.588Z,100658.00
2019-06-01T23:49:58.763Z,100654.00
2019-06-01T23:52:29.895Z,100656.00
2019-06-01T23:55:01.087Z,100649.00
2019-06-01T23:57:32.285Z,100652.00
